sensor_id;sensor_type;location;lat;lon;timestamp;pressure;altitude;pressure_sealevel;temperature;humidity
21902;BME280;11115;46.038;14.612;2023-01-08T00:01:03;98641.63;;;7.90;100.00
21902;BME280;11115;46.038;14.612;2023-01-08T00:03:32;98650.66;;;7.96;100.00
21902;BME280;11115;46.038;14.612;2023-01-08T00:06:01;98649.84;;;7.96;100.00
21902;BME280;11115;46.038;14.612;2023-01-08T00:08:30;98651.44;;;8.02;100.00
21902;BME280;11115;46.038;14.612;2023-01-08T00:10:58;98651.50;;;7.97;100.00
21902;BME280;11115;46.038;14.612;2023-01-08T00:13:26;98640.19;;;7.98;100.00
21902;BME280;11115;46.038;14.612;2023-01-08T00:15:54;98639.31;;;8.03;100.00
21902;BME280;11115;46.038;14.612;2023-01-08T00:18:22;98642.06;;;8.03;100.00
21902;BME280;11115;46.038;14.612;2023-01-08T00:20:52;98634.91;;;8.02;100.00
21902;BME280;11115;46.038;14.612;2023-01-08T00:23:20;98645.09;;;8.01;100.00
21902;BME280;11115;46.038;14.612;2023-01-08T00:25:48;98636.56;;;8.03;100.00
21902;BME280;11115;46.038;14.612;2023-01-08T00:28:16;98640.66;;;8.05;100.00
21902;BME280;11115;46.038;14.612;2023-01-08T00:30:46;98641.53;;;8.01;100.00
21902;BME280;11115;46.038;14.612;2023-01-08T00:33:14;98637.66;;;8.02;100.00
21902;BME280;11115;46.038;14.612;2023-01-08T00:35:42;98638.50;;;8.02;100.00
21902;BME280;11115;46.038;14.612;2023-01-08T00:38:10;98640.13;;;8.03;100.00
21902;BME280;11115;46.038;14.612;2023-01-08T00:40:38;98638.50;;;8.02;100.00
21902;BME280;11115;46.038;14.612;2023-01-08T00:43:06;98610.47;;;7.90;100.00
21902;BME280;11115;46.038;14.612;2023-01-08T00:45:34;98638.19;;;8.04;100.00
21902;BME280;11115;46.038;14.612;2023-01-08T00:48:02;98639.81;;;8.10;100.00
21902;BME280;11115;46.038;14.612;2023-01-08T00:50:30;98633.50;;;8.04;100.00
21902;BME280;11115;46.038;14.612;2023-01-08T00:52:57;98637.63;;;8.07;100.00
21902;BME280;11115;46.038;14.612;2023-01-08T00:55:26;98635.69;;;8.07;100.00
21902;BME280;11115;46.038;14.612;2023-01-08T00:57:54;98639.03;;;8.04;100.00
21902;BME280;11115;46.038;14.612;2023-01-08T01:00:23;98634.88;;;8.07;100.00
21902;BME280;11115;46.038;14.612;2023-01-08T01:02:51;98637.38;;;8.03;100.00
21902;BME280;11115;46.038;14.612;2023-01-08T01:05:19;98640.94;;;8.04;100.00
21902;BME280;11115;46.038;14.612;2023-01-08T01:07:46;98648.09;;;8.05;100.00
21902;BME280;11115;46.038;14.612;2023-01-08T01:10:15;98651.38;;;8.07;100.00
21902;BME280;11115;46.038;14.612;2023-01-08T01:12:43;98646.16;;;8.05;100.00
21902;BME280;11115;46.038;14.612;2023-01-08T01:15:14;98647.00;;;8.06;100.00
21902;BME280;11115;46.038;14.612;2023-01-08T01:17:44;98648.63;;;8.07;100.00
21902;BME280;11115;46.038;14.612;2023-01-08T01:20:14;98649.50;;;8.02;100.00
21902;BME280;11115;46.038;14.612;2023-01-08T01:22:42;98648.22;;;7.95;100.00
21902;BME280;11115;46.038;14.612;2023-01-08T01:25:10;98649.03;;;7.95;100.00
21902;BME280;11115;46.038;14.612;2023-01-08T01:27:38;98646.50;;;7.99;100.00
21902;BME280;11115;46.038;14.612;2023-01-08T01:30:06;98652.78;;;8.04;100.00
21902;BME280;11115;46.038;14.612;2023-01-08T01:32:34;98650.34;;;8.03;100.00
21902;BME280;11115;46.038;14.612;2023-01-08T01:35:02;98655.56;;;8.04;100.00
21902;BME280;11115;46.038;14.612;2023-01-08T01:37:30;98655.84;;;8.03;100.00
21902;BME280;11115;46.038;14.612;2023-01-08T01:39:57;98637.78;;;7.91;100.00
21902;BME280;11115;46.038;14.612;2023-01-08T01:42:25;98649.81;;;8.01;100.00
21902;BME280;11115;46.038;14.612;2023-01-08T01:45:18;98654.19;;;8.02;100.00
21902;BME280;11115;46.038;14.612;2023-01-08T01:47:54;98656.97;;;8.02;100.00
21902;BME280;11115;46.038;14.612;2023-01-08T01:50:36;98653.44;;;7.96;100.00
21902;BME280;11115;46.038;14.612;2023-01-08T01:53:12;98645.09;;;8.01;100.00
21902;BME280;11115;46.038;14.612;2023-01-08T01:55:42;98635.84;;;7.92;100.00
21902;BME280;11115;46.038;14.612;2023-01-08T01:58:13;98639.13;;;7.94;100.00
21902;BME280;11115;46.038;14.612;2023-01-08T02:00:43;98635.00;;;7.91;100.00
21902;BME280;11115;46.038;14.612;2023-01-08T02:03:13;98635.25;;;7.95;100.00
21902;BME280;11115;46.038;14.612;2023-01-08T02:05:57;98633.31;;;7.96;100.00
21902;BME280;11115;46.038;14.612;2023-01-08T02:08:52;98631.97;;;7.93;100.00
21902;BME280;11115;46.038;14.612;2023-01-08T02:14:19;98634.19;;;7.91;100.00
21902;BME280;11115;46.038;14.612;2023-01-08T02:16:52;98639.41;;;7.93;100.00
21902;BME280;11115;46.038;14.612;2023-01-08T02:23:00;98619.03;;;7.88;100.00
21902;BME280;11115;46.038;14.612;2023-01-08T02:25:54;98623.41;;;7.95;100.00
21902;BME280;11115;46.038;14.612;2023-01-08T02:28:25;98610.53;;;7.85;100.00
21902;BME280;11115;46.038;14.612;2023-01-08T02:30:53;98624.00;;;7.91;100.00
21902;BME280;11115;46.038;14.612;2023-01-08T02:33:23;98608.59;;;7.90;100.00
21902;BME280;11115;46.038;14.612;2023-01-08T02:38:47;98613.50;;;7.94;100.00
21902;BME280;11115;46.038;14.612;2023-01-08T02:41:23;98619.03;;;7.88;100.00
21902;BME280;11115;46.038;14.612;2023-01-08T02:43:52;98607.72;;;7.90;100.00
21902;BME280;11115;46.038;14.612;2023-01-08T02:46:25;98602.22;;;7.90;100.00
21902;BME280;11115;46.038;14.612;2023-01-08T02:49:02;98586.56;;;7.85;100.00
21902;BME280;11115;46.038;14.612;2023-01-08T02:51:40;98594.00;;;7.85;100.00
21902;BME280;11115;46.038;14.612;2023-01-08T02:54:13;98584.09;;;7.84;100.00
21902;BME280;11115;46.038;14.612;2023-01-08T02:56:45;98565.75;;;7.69;100.00
21902;BME280;11115;46.038;14.612;2023-01-08T02:59:16;98592.13;;;7.80;100.00
21902;BME280;11115;46.038;14.612;2023-01-08T03:01:46;98590.72;;;7.83;100.00
21902;BME280;11115;46.038;14.612;2023-01-08T03:04:19;98593.75;;;7.81;100.00
21902;BME280;11115;46.038;14.612;2023-01-08T03:06:48;98573.47;;;7.72;100.00
21902;BME280;11115;46.038;14.612;2023-01-08T03:09:17;98584.44;;;7.77;100.00
21902;BME280;11115;46.038;14.612;2023-01-08T03:11:52;98583.63;;;7.77;100.00
21902;BME280;11115;46.038;14.612;2023-01-08T03:16:57;98557.56;;;7.64;100.00
21902;BME280;11115;46.038;14.612;2023-01-08T03:19:31;98563.84;;;7.70;100.00
21902;BME280;11115;46.038;14.612;2023-01-08T03:22:02;98561.66;;;7.67;100.00
21902;BME280;11115;46.038;14.612;2023-01-08T03:24:37;98566.09;;;7.63;100.00
21902;BME280;11115;46.038;14.612;2023-01-08T03:27:08;98569.09;;;7.66;100.00
21902;BME280;11115;46.038;14.612;2023-01-08T03:29:37;98569.97;;;7.61;100.00
21902;BME280;11115;46.038;14.612;2023-01-08T03:32:10;98534.09;;;7.38;100.00
21902;BME280;11115;46.038;14.612;2023-01-08T03:34:42;98557.66;;;7.54;100.00
21902;BME280;11115;46.038;14.612;2023-01-08T03:37:13;98529.13;;;7.40;100.00
21902;BME280;11115;46.038;14.612;2023-01-08T03:39:59;98545.03;;;7.48;100.00
21902;BME280;11115;46.038;14.612;2023-01-08T03:42:31;98546.75;;;7.39;100.00
21902;BME280;11115;46.038;14.612;2023-01-08T03:44:59;98528.81;;;7.07;100.00
21902;BME280;11115;46.038;14.612;2023-01-08T03:47:31;98531.75;;;7.21;100.00
21902;BME280;11115;46.038;14.612;2023-01-08T03:50:02;98535.13;;;7.08;100.00
21902;BME280;11115;46.038;14.612;2023-01-08T03:52:30;98531.69;;;7.26;100.00
21902;BME280;11115;46.038;14.612;2023-01-08T03:54:58;98529.06;;;7.11;100.00
21902;BME280;11115;46.038;14.612;2023-01-08T03:57:26;98508.25;;;6.99;100.00
21902;BME280;11115;46.038;14.612;2023-01-08T03:59:54;98521.34;;;7.13;100.00
21902;BME280;11115;46.038;14.612;2023-01-08T04:02:21;98515.34;;;7.06;100.00
21902;BME280;11115;46.038;14.612;2023-01-08T04:04:49;98509.78;;;7.11;100.00
21902;BME280;11115;46.038;14.612;2023-01-08T04:07:17;98502.88;;;7.18;100.00
21902;BME280;11115;46.038;14.612;2023-01-08T04:09:45;98497.97;;;7.15;100.00
21902;BME280;11115;46.038;14.612;2023-01-08T04:12:13;98496.63;;;7.08;100.00
21902;BME280;11115;46.038;14.612;2023-01-08T04:14:40;98503.59;;;6.95;100.00
21902;BME280;11115;46.038;14.612;2023-01-08T04:17:11;98509.63;;;6.92;100.00
21902;BME280;11115;46.038;14.612;2023-01-08T04:19:40;98502.22;;;6.92;100.00
21902;BME280;11115;46.038;14.612;2023-01-08T04:22:09;98484.59;;;6.93;100.00
21902;BME280;11115;46.038;14.612;2023-01-08T04:24:37;98496.56;;;7.13;100.00
21902;BME280;11115;46.038;14.612;2023-01-08T04:27:05;98494.97;;;7.07;100.00
21902;BME280;11115;46.038;14.612;2023-01-08T04:29:32;98501.53;;;7.16;100.00
21902;BME280;11115;46.038;14.612;2023-01-08T04:32:00;98497.38;;;7.13;100.00
21902;BME280;11115;46.038;14.612;2023-01-08T04:34:28;98500.28;;;6.98;100.00
21902;BME280;11115;46.038;14.612;2023-01-08T04:36:56;98464.88;;;6.86;100.00
21902;BME280;11115;46.038;14.612;2023-01-08T04:39:23;98497.44;;;7.08;100.00
21902;BME280;11115;46.038;14.612;2023-01-08T04:41:51;98491.53;;;6.86;100.00
21902;BME280;11115;46.038;14.612;2023-01-08T04:44:18;98493.97;;;6.92;100.00
21902;BME280;11115;46.038;14.612;2023-01-08T04:46:46;98486.81;;;6.96;100.00
21902;BME280;11115;46.038;14.612;2023-01-08T04:49:14;98483.72;;;7.03;100.00
21902;BME280;11115;46.038;14.612;2023-01-08T04:51:42;98491.78;;;6.89;100.00
21902;BME280;11115;46.038;14.612;2023-01-08T04:54:09;98492.06;;;6.88;100.00
21902;BME280;11115;46.038;14.612;2023-01-08T04:56:37;98499.47;;;6.92;100.00
21902;BME280;11115;46.038;14.612;2023-01-08T04:59:05;98495.22;;;7.10;100.00
21902;BME280;11115;46.038;14.612;2023-01-08T05:01:32;98500.38;;;7.22;100.00
21902;BME280;11115;46.038;14.612;2023-01-08T05:04:02;98501.38;;;7.36;100.00
21902;BME280;11115;46.038;14.612;2023-01-08T05:06:31;98495.03;;;7.36;100.00
21902;BME280;11115;46.038;14.612;2023-01-08T05:08:59;98480.19;;;7.31;100.00
21902;BME280;11115;46.038;14.612;2023-01-08T05:11:27;98474.66;;;7.37;100.00
21902;BME280;11115;46.038;14.612;2023-01-08T05:13:54;98475.50;;;7.37;100.00
21902;BME280;11115;46.038;14.612;2023-01-08T05:16:23;98493.78;;;7.52;100.00
21902;BME280;11115;46.038;14.612;2023-01-08T05:18:51;98492.44;;;7.49;100.00
21902;BME280;11115;46.038;14.612;2023-01-08T05:21:19;98489.38;;;7.56;100.00
21902;BME280;11115;46.038;14.612;2023-01-08T05:23:46;98480.06;;;7.47;100.00
21902;BME280;11115;46.038;14.612;2023-01-08T05:26:15;98491.81;;;7.57;100.00
21902;BME280;11115;46.038;14.612;2023-01-08T05:28:43;98491.13;;;7.71;100.00
21902;BME280;11115;46.038;14.612;2023-01-08T05:31:10;98489.16;;;7.76;100.00
21902;BME280;11115;46.038;14.612;2023-01-08T05:33:41;98469.56;;;7.54;100.00
21902;BME280;11115;46.038;14.612;2023-01-08T05:36:10;98488.13;;;7.67;100.00
21902;BME280;11115;46.038;14.612;2023-01-08T05:38:39;98487.91;;;7.64;100.00
21902;BME280;11115;46.038;14.612;2023-01-08T05:41:07;98485.69;;;7.66;100.00
21902;BME280;11115;46.038;14.612;2023-01-08T05:43:36;98490.06;;;7.67;100.00
21902;BME280;11115;46.038;14.612;2023-01-08T05:46:04;98459.50;;;7.68;100.00
21902;BME280;11115;46.038;14.612;2023-01-08T05:48:34;98469.31;;;7.79;100.00
21902;BME280;11115;46.038;14.612;2023-01-08T05:51:03;98483.06;;;7.79;100.00
21902;BME280;11115;46.038;14.612;2023-01-08T05:53:31;98480.03;;;7.81;100.00
21902;BME280;11115;46.038;14.612;2023-01-08T05:56:00;98468.25;;;7.75;100.00
21902;BME280;11115;46.038;14.612;2023-01-08T05:58:29;98469.53;;;7.83;100.00
21902;BME280;11115;46.038;14.612;2023-01-08T06:01:02;98454.19;;;7.77;100.00
21902;BME280;11115;46.038;14.612;2023-01-08T06:03:33;98470.56;;;7.92;100.00
21902;BME280;11115;46.038;14.612;2023-01-08T06:06:02;98471.38;;;7.93;100.00
21902;BME280;11115;46.038;14.612;2023-01-08T06:08:30;98461.47;;;7.91;100.00
21902;BME280;11115;46.038;14.612;2023-01-08T06:10:59;98438.50;;;7.77;100.00
21902;BME280;11115;46.038;14.612;2023-01-08T06:13:27;98461.22;;;7.88;100.00
21902;BME280;11115;46.038;14.612;2023-01-08T06:15:57;98438.41;;;7.82;100.00
21902;BME280;11115;46.038;14.612;2023-01-08T06:18:26;98464.69;;;7.99;100.00
21902;BME280;11115;46.038;14.612;2023-01-08T06:20:54;98392.19;;;7.55;100.00
21902;BME280;11115;46.038;14.612;2023-01-08T06:23:22;98464.69;;;7.99;100.00
21902;BME280;11115;46.038;14.612;2023-01-08T06:25:54;98468.28;;;7.99;100.00
21902;BME280;11115;46.038;14.612;2023-01-08T06:28:22;98454.56;;;7.94;100.00
21902;BME280;11115;46.038;14.612;2023-01-08T06:30:49;98450.97;;;7.94;100.00
21902;BME280;11115;46.038;14.612;2023-01-08T06:33:18;98450.69;;;7.95;100.00
21902;BME280;11115;46.038;14.612;2023-01-08T06:35:47;98453.16;;;7.97;100.00
21902;BME280;11115;46.038;14.612;2023-01-08T06:38:15;98451.44;;;8.01;100.00
21902;BME280;11115;46.038;14.612;2023-01-08T06:40:45;98450.41;;;7.97;100.00
21902;BME280;11115;46.038;14.612;2023-01-08T06:43:13;98449.22;;;8.03;100.00
21902;BME280;11115;46.038;14.612;2023-01-08T06:45:40;98443.47;;;7.99;100.00
21902;BME280;11115;46.038;14.612;2023-01-08T06:48:08;98440.94;;;8.03;100.00
21902;BME280;11115;46.038;14.612;2023-01-08T06:50:36;98438.50;;;8.01;100.00
21902;BME280;11115;46.038;14.612;2023-01-08T06:53:04;98436.31;;;7.98;100.00
21902;BME280;11115;46.038;14.612;2023-01-08T06:55:31;98435.72;;;8.01;100.00
21902;BME280;11115;46.038;14.612;2023-01-08T06:57:59;98435.13;;;8.04;100.00
21902;BME280;11115;46.038;14.612;2023-01-08T07:00:27;98432.16;;;8.01;100.00
21902;BME280;11115;46.038;14.612;2023-01-08T07:02:55;98434.09;;;8.00;100.00
21902;BME280;11115;46.038;14.612;2023-01-08T07:05:23;98433.22;;;8.05;100.00
21902;BME280;11115;46.038;14.612;2023-01-08T07:07:50;98442.53;;;8.09;100.00
21902;BME280;11115;46.038;14.612;2023-01-08T07:10:18;98445.56;;;8.07;100.00
21902;BME280;11115;46.038;14.612;2023-01-08T07:12:46;98443.91;;;8.11;100.00
21902;BME280;11115;46.038;14.612;2023-01-08T07:15:14;98439.53;;;8.05;100.00
21902;BME280;11115;46.038;14.612;2023-01-08T07:17:42;98428.81;;;8.04;100.00
21902;BME280;11115;46.038;14.612;2023-01-08T07:20:10;98441.66;;;8.13;100.00
21902;BME280;11115;46.038;14.612;2023-01-08T07:22:38;98420.63;;;7.99;100.00
21902;BME280;11115;46.038;14.612;2023-01-08T07:25:06;98443.81;;;8.16;100.00
21902;BME280;11115;46.038;14.612;2023-01-08T07:27:34;98440.47;;;8.19;100.00
21902;BME280;11115;46.038;14.612;2023-01-08T07:30:01;98438.00;;;8.18;100.00
21902;BME280;11115;46.038;14.612;2023-01-08T07:32:29;98438.47;;;8.25;100.00
21902;BME280;11115;46.038;14.612;2023-01-08T07:34:57;98436.22;;;8.27;100.00
21902;BME280;11115;46.038;14.612;2023-01-08T07:37:25;98429.59;;;8.28;100.00
21902;BME280;11115;46.038;14.612;2023-01-08T07:39:53;98426.84;;;8.28;100.00
21902;BME280;11115;46.038;14.612;2023-01-08T07:42:20;98441.44;;;8.29;100.00
21902;BME280;11115;46.038;14.612;2023-01-08T07:44:48;98434.56;;;8.31;100.00
21902;BME280;11115;46.038;14.612;2023-01-08T07:47:16;98437.88;;;8.28;100.00
21902;BME280;11115;46.038;14.612;2023-01-08T07:49:43;98435.66;;;8.30;100.00
21902;BME280;11115;46.038;14.612;2023-01-08T07:52:11;98431.28;;;8.29;100.00
21902;BME280;11115;46.038;14.612;2023-01-08T07:54:39;98430.72;;;8.27;100.00
21902;BME280;11115;46.038;14.612;2023-01-08T07:57:07;98426.81;;;8.33;100.00
21902;BME280;11115;46.038;14.612;2023-01-08T07:59:34;98414.25;;;8.22;100.00
21902;BME280;11115;46.038;14.612;2023-01-08T08:02:02;98426.53;;;8.35;100.00
21902;BME280;11115;46.038;14.612;2023-01-08T08:04:30;98423.00;;;8.29;100.00
21902;BME280;11115;46.038;14.612;2023-01-08T08:06:58;98426.53;;;8.35;100.00
21902;BME280;11115;46.038;14.612;2023-01-08T08:09:25;98419.38;;;8.34;100.00
21902;BME280;11115;46.038;14.612;2023-01-08T08:11:53;98423.50;;;8.36;100.00
21902;BME280;11115;46.038;14.612;2023-01-08T08:14:21;98412.47;;;8.36;100.00
21902;BME280;11115;46.038;14.612;2023-01-08T08:16:48;98415.13;;;8.41;100.00
21902;BME280;11115;46.038;14.612;2023-01-08T08:19:16;98406.88;;;8.41;100.00
21902;BME280;11115;46.038;14.612;2023-01-08T08:21:44;98416.25;;;8.40;100.00
21902;BME280;11115;46.038;14.612;2023-01-08T08:24:11;98432.28;;;8.38;100.00
21902;BME280;11115;46.038;14.612;2023-01-08T08:26:39;98412.56;;;8.26;100.00
21902;BME280;11115;46.038;14.612;2023-01-08T08:29:07;98418.06;;;8.26;100.00
21902;BME280;11115;46.038;14.612;2023-01-08T08:31:34;98424.66;;;8.30;100.00
21902;BME280;11115;46.038;14.612;2023-01-08T08:34:02;98389.91;;;8.10;100.00
21902;BME280;11115;46.038;14.612;2023-01-08T08:36:32;98418.31;;;8.30;100.00
21902;BME280;11115;46.038;14.612;2023-01-08T08:39:01;98418.53;;;8.33;100.00
21902;BME280;11115;46.038;14.612;2023-01-08T08:41:29;98420.78;;;8.31;100.00
21902;BME280;11115;46.038;14.612;2023-01-08T08:43:56;98408.38;;;8.34;100.00
21902;BME280;11115;46.038;14.612;2023-01-08T08:46:24;98410.81;;;8.35;100.00
21902;BME280;11115;46.038;14.612;2023-01-08T08:48:52;98408.00;;;8.40;100.00
21902;BME280;11115;46.038;14.612;2023-01-08T08:51:19;98419.09;;;8.35;100.00
21902;BME280;11115;46.038;14.612;2023-01-08T08:53:47;98407.50;;;8.33;100.00
21902;BME280;11115;46.038;14.612;2023-01-08T08:56:16;98406.16;;;8.31;100.00
21902;BME280;11115;46.038;14.612;2023-01-08T08:58:44;98396.97;;;8.16;100.00
21902;BME280;11115;46.038;14.612;2023-01-08T09:01:11;98414.41;;;8.36;100.00
21902;BME280;11115;46.038;14.612;2023-01-08T09:03:39;98421.78;;;8.40;100.00
21902;BME280;11115;46.038;14.612;2023-01-08T09:06:12;98413.72;;;8.44;100.00
21902;BME280;11115;46.038;14.612;2023-01-08T09:08:40;98402.56;;;8.35;100.00
21902;BME280;11115;46.038;14.612;2023-01-08T09:11:08;98409.25;;;8.48;100.00
21902;BME280;11115;46.038;14.612;2023-01-08T09:13:36;98415.84;;;8.52;100.00
21902;BME280;11115;46.038;14.612;2023-01-08T09:16:04;98413.91;;;8.52;100.00
21902;BME280;11115;46.038;14.612;2023-01-08T09:18:32;98420.16;;;8.58;100.00
21902;BME280;11115;46.038;14.612;2023-01-08T09:21:04;98409.19;;;8.53;100.00
21902;BME280;11115;46.038;14.612;2023-01-08T09:23:35;98413.13;;;8.47;100.00
21902;BME280;11115;46.038;14.612;2023-01-08T09:26:04;98421.13;;;8.48;100.00
21902;BME280;11115;46.038;14.612;2023-01-08T09:28:32;98391.03;;;8.28;100.00
21902;BME280;11115;46.038;14.612;2023-01-08T09:31:03;98425.66;;;8.39;100.00
21902;BME280;11115;46.038;14.612;2023-01-08T09:33:31;98420.88;;;8.45;100.00
21902;BME280;11115;46.038;14.612;2023-01-08T09:35:59;98423.94;;;8.43;100.00
21902;BME280;11115;46.038;14.612;2023-01-08T09:38:27;98427.22;;;8.45;100.00
21902;BME280;11115;46.038;14.612;2023-01-08T09:41:24;98423.19;;;8.38;100.00
21902;BME280;11115;46.038;14.612;2023-01-08T09:43:54;98413.50;;;8.40;100.00
21902;BME280;11115;46.038;14.612;2023-01-08T09:46:26;98403.59;;;8.39;100.00
21902;BME280;11115;46.038;14.612;2023-01-08T09:48:58;98404.94;;;8.42;100.00
21902;BME280;11115;46.038;14.612;2023-01-08T09:51:32;98390.19;;;8.51;100.00
21902;BME280;11115;46.038;14.612;2023-01-08T09:54:01;98383.91;;;8.65;100.00
21902;BME280;11115;46.038;14.612;2023-01-08T09:56:30;98376.47;;;8.65;100.00
21902;BME280;11115;46.038;14.612;2023-01-08T09:59:01;98365.06;;;8.72;100.00
21902;BME280;11115;46.038;14.612;2023-01-08T10:01:34;98357.09;;;8.70;100.00
21902;BME280;11115;46.038;14.612;2023-01-08T10:04:20;98356.31;;;8.83;100.00
21902;BME280;11115;46.038;14.612;2023-01-08T10:09:29;98357.00;;;8.94;100.00
21902;BME280;11115;46.038;14.612;2023-01-08T10:12:03;98343.31;;;9.03;100.00
21902;BME280;11115;46.038;14.612;2023-01-08T10:14:34;98335.16;;;9.11;100.00
21902;BME280;11115;46.038;14.612;2023-01-08T10:17:25;98333.88;;;9.36;100.00
21902;BME280;11115;46.038;14.612;2023-01-08T10:19:53;98310.44;;;9.20;100.00
21902;BME280;11115;46.038;14.612;2023-01-08T10:22:23;98314.16;;;9.43;100.00
21902;BME280;11115;46.038;14.612;2023-01-08T10:24:52;98338.09;;;9.48;100.00
21902;BME280;11115;46.038;14.612;2023-01-08T10:27:21;98329.31;;;9.46;100.00
21902;BME280;11115;46.038;14.612;2023-01-08T10:29:50;98325.81;;;9.40;100.00
21902;BME280;11115;46.038;14.612;2023-01-08T10:32:24;98319.91;;;9.47;100.00
21902;BME280;11115;46.038;14.612;2023-01-08T10:34:55;98320.22;;;9.45;100.00
21902;BME280;11115;46.038;14.612;2023-01-08T10:40:05;98316.19;;;9.37;100.00
21902;BME280;11115;46.038;14.612;2023-01-08T10:42:35;98309.03;;;9.36;100.00
21902;BME280;11115;46.038;14.612;2023-01-08T10:45:05;98309.13;;;9.31;100.00
21902;BME280;11115;46.038;14.612;2023-01-08T10:47:38;98318.13;;;9.37;100.00
21902;BME280;11115;46.038;14.612;2023-01-08T10:50:18;98298.59;;;9.33;100.00
21902;BME280;11115;46.038;14.612;2023-01-08T10:53:23;98306.91;;;9.47;100.00
21902;BME280;11115;46.038;14.612;2023-01-08T10:56:02;98294.22;;;9.46;100.00
21902;BME280;11115;46.038;14.612;2023-01-08T10:58:41;98288.28;;;9.53;100.00
21902;BME280;11115;46.038;14.612;2023-01-08T11:01:20;98263.31;;;9.44;100.00
21902;BME280;11115;46.038;14.612;2023-01-08T11:03:55;98278.16;;;9.62;100.00
21902;BME280;11115;46.038;14.612;2023-01-08T11:06:28;98246.16;;;9.47;100.00
21902;BME280;11115;46.038;14.612;2023-01-08T11:08:59;98259.84;;;9.66;100.00
21902;BME280;11115;46.038;14.612;2023-01-08T11:11:35;98259.44;;;9.72;100.00
21902;BME280;11115;46.038;14.612;2023-01-08T11:14:23;98226.59;;;9.57;100.00
21902;BME280;11115;46.038;14.612;2023-01-08T11:16:52;98252.47;;;9.75;100.00
21902;BME280;11115;46.038;14.612;2023-01-08T11:19:33;98257.19;;;9.74;100.00
21902;BME280;11115;46.038;14.612;2023-01-08T11:22:04;98252.16;;;9.77;100.00
21902;BME280;11115;46.038;14.612;2023-01-08T11:24:37;98235.00;;;9.66;100.00
21902;BME280;11115;46.038;14.612;2023-01-08T11:27:14;98239.91;;;9.69;100.00
21902;BME280;11115;46.038;14.612;2023-01-08T11:35:24;98212.91;;;10.02;100.00
21902;BME280;11115;46.038;14.612;2023-01-08T11:37:58;98214.44;;;10.08;100.00
21902;BME280;11115;46.038;14.612;2023-01-08T11:51:51;98205.19;;;10.13;100.00
21902;BME280;11115;46.038;14.612;2023-01-08T11:58:06;98194.94;;;10.27;100.00
21902;BME280;11115;46.038;14.612;2023-01-08T12:03:50;98197.53;;;10.23;100.00
21902;BME280;11115;46.038;14.612;2023-01-08T12:09:42;98184.75;;;10.36;100.00
21902;BME280;11115;46.038;14.612;2023-01-08T12:15:34;98182.47;;;10.38;100.00
21902;BME280;11115;46.038;14.612;2023-01-08T12:24:18;98170.97;;;10.67;100.00
21902;BME280;11115;46.038;14.612;2023-01-08T12:40:15;98152.56;;;10.62;100.00
21902;BME280;11115;46.038;14.612;2023-01-08T12:42:44;98159.50;;;10.60;100.00
21902;BME280;11115;46.038;14.612;2023-01-08T12:45:40;98156.25;;;10.58;100.00
21902;BME280;11115;46.038;14.612;2023-01-08T12:48:16;98134.09;;;10.49;100.00
21902;BME280;11115;46.038;14.612;2023-01-08T12:56:25;98140.34;;;10.63;100.00
21902;BME280;11115;46.038;14.612;2023-01-08T13:01:44;98131.25;;;10.63;100.00
21902;BME280;11115;46.038;14.612;2023-01-08T13:04:14;98138.94;;;10.75;100.00
21902;BME280;11115;46.038;14.612;2023-01-08T13:09:23;98127.53;;;10.76;100.00
21902;BME280;11115;46.038;14.612;2023-01-08T13:11:54;98126.81;;;10.93;100.00
21902;BME280;11115;46.038;14.612;2023-01-08T13:14:24;98105.56;;;10.71;100.00
21902;BME280;11115;46.038;14.612;2023-01-08T13:17:04;98125.97;;;10.84;100.00
21902;BME280;11115;46.038;14.612;2023-01-08T13:19:41;98110.56;;;10.60;100.00
21902;BME280;11115;46.038;14.612;2023-01-08T13:22:33;98124.13;;;10.79;100.00
21902;BME280;11115;46.038;14.612;2023-01-08T13:27:43;98126.53;;;11.03;100.00
21902;BME280;11115;46.038;14.612;2023-01-08T13:30:31;98116.38;;;10.90;100.00
21902;BME280;11115;46.038;14.612;2023-01-08T13:32:59;98103.03;;;10.92;100.00
21902;BME280;11115;46.038;14.612;2023-01-08T13:35:29;98110.56;;;11.00;100.00
21902;BME280;11115;46.038;14.612;2023-01-08T13:43:35;98118.34;;;10.98;100.00
21902;BME280;11115;46.038;14.612;2023-01-08T13:46:12;98109.09;;;11.03;100.00
21902;BME280;11115;46.038;14.612;2023-01-08T13:51:40;98123.94;;;11.07;100.00
21902;BME280;11115;46.038;14.612;2023-01-08T13:56:41;98123.59;;;11.08;100.00
21902;BME280;11115;46.038;14.612;2023-01-08T14:02:23;98108.88;;;10.90;100.00
21902;BME280;11115;46.038;14.612;2023-01-08T14:04:52;98106.78;;;10.96;100.00
21902;BME280;11115;46.038;14.612;2023-01-08T14:07:21;98098.13;;;10.80;100.00
21902;BME280;11115;46.038;14.612;2023-01-08T14:09:50;98118.53;;;11.02;100.00
21902;BME280;11115;46.038;14.612;2023-01-08T14:12:22;98103.59;;;10.63;100.00
21902;BME280;11115;46.038;14.612;2023-01-08T14:14:55;98110.03;;;10.89;100.00
21902;BME280;11115;46.038;14.612;2023-01-08T14:17:29;98113.75;;;10.85;100.00
21902;BME280;11115;46.038;14.612;2023-01-08T14:19:57;98114.91;;;10.84;100.00
21902;BME280;11115;46.038;14.612;2023-01-08T14:22:32;98116.31;;;10.73;100.00
21902;BME280;11115;46.038;14.612;2023-01-08T14:25:03;98118.91;;;10.69;100.00
21902;BME280;11115;46.038;14.612;2023-01-08T14:27:33;98115.63;;;10.67;100.00
21902;BME280;11115;46.038;14.612;2023-01-08T14:30:01;98122.31;;;10.66;100.00
21902;BME280;11115;46.038;14.612;2023-01-08T14:32:42;98090.19;;;10.56;100.00
21902;BME280;11115;46.038;14.612;2023-01-08T14:35:14;98103.75;;;10.67;100.00
21902;BME280;11115;46.038;14.612;2023-01-08T14:37:43;98108.28;;;10.62;100.00
21902;BME280;11115;46.038;14.612;2023-01-08T14:40:15;98085.31;;;10.53;100.00